Time;durP1;ratioP1;P1;durP2;ratioP2;P2;SDS_P1;SDS_P2;PMS_P1;PMS_P2;Temp;Humidity;BMP_temperature;BMP_pressure;BME280_temperature;BME280_humidity;BME280_pressure;Samples;Min_cycle;Max_cycle;Signal;HPM_P1;HPM_P2
2022/02/01 00:00:24;;;;;;;3.13;1.40;;;5.40;64.60;;;;;;5068124;28;20241;-80
2022/02/01 00:02:55;;;;;;;2.85;1.10;;;5.50;64.70;;;;;;5068021;28;20272;-82
2022/02/01 00:05:29;;;;;;;2.53;1.05;;;5.50;64.70;;;;;;5073551;28;20203;-80
2022/02/01 00:08:07;;;;;;;2.97;1.30;;;5.50;64.80;;;;;;5072064;28;20262;-80
2022/02/01 00:10:46;;;;;;;4.00;1.20;;;5.50;63.90;;;;;;5070337;28;20202;-79
2022/02/01 00:13:22;;;;;;;2.55;1.17;;;5.50;62.60;;;;;;5074424;28;20241;-80
2022/02/01 00:19:01;;;;;;;4.18;1.67;;;5.60;62.20;;;;;;5072984;28;20194;-80
2022/02/01 00:35:28;;;;;;;4.78;1.55;;;5.60;61.80;;;;;;5063139;28;20582;-81
2022/02/01 00:38:00;;;;;;;2.85;1.20;;;5.60;61.70;;;;;;5066958;28;20195;-79
2022/02/01 00:40:27;;;;;;;2.22;0.93;;;5.70;61.40;;;;;;5068055;28;20336;-79
2022/02/01 00:42:55;;;;;;;2.15;0.70;;;5.70;61.40;;;;;;5071576;28;20239;-79
2022/02/01 00:45:22;;;;;;;1.92;1.17;;;5.70;61.30;;;;;;5071517;28;20249;-79
2022/02/01 00:47:49;;;;;;;7.55;1.23;;;5.70;60.50;;;;;;5068941;28;20203;-79
2022/02/01 00:50:16;;;;;;;1.83;1.02;;;5.70;60.20;;;;;;5068094;28;20242;-80
2022/02/01 00:52:43;;;;;;;4.03;0.90;;;5.70;60.00;;;;;;5065805;28;20214;-79
2022/02/01 00:55:12;;;;;;;3.95;1.25;;;5.70;60.00;;;;;;5069021;28;20207;-79
2022/02/01 00:57:40;;;;;;;2.80;0.70;;;5.70;59.60;;;;;;5071916;28;20211;-78
2022/02/01 01:00:10;;;;;;;3.08;1.10;;;5.70;59.20;;;;;;5072286;28;20293;-79
2022/02/01 01:02:37;;;;;;;2.33;1.00;;;5.70;59.00;;;;;;5074890;28;20215;-79
2022/02/01 01:05:05;;;;;;;3.58;0.95;;;5.70;58.50;;;;;;5077480;28;20221;-77
2022/02/01 01:07:33;;;;;;;1.55;0.90;;;5.70;58.50;;;;;;5078243;28;20200;-78
2022/02/01 01:10:01;;;;;;;2.92;0.80;;;5.60;58.80;;;;;;5078295;28;20202;-80
2022/02/01 01:12:33;;;;;;;1.92;0.68;;;5.60;58.30;;;;;;5070716;28;20234;-81
2022/02/01 01:15:15;;;;;;;2.00;1.00;;;5.60;58.20;;;;;;5070777;28;20206;-79
2022/02/01 01:45:20;;;;;;;2.70;1.20;;;5.60;56.60;;;;;;5074646;28;20236;-79
2022/02/01 01:53:19;;;;;;;4.43;1.52;;;5.70;55.90;;;;;;5066074;28;20232;-80
2022/02/01 01:55:49;;;;;;;2.60;1.25;;;5.70;55.90;;;;;;5066723;28;20273;-79
2022/02/01 01:58:16;;;;;;;5.28;1.20;;;5.60;55.80;;;;;;5067032;28;20202;-80
2022/02/01 02:03:31;;;;;;;6.95;1.95;;;5.60;55.80;;;;;;5064755;28;20237;-79
2022/02/01 02:05:58;;;;;;;3.55;1.38;;;5.60;56.50;;;;;;5071870;28;20230;-80
2022/02/01 02:08:24;;;;;;;3.00;1.30;;;5.60;55.80;;;;;;5066305;28;20678;-79
2022/02/01 02:11:00;;;;;;;5.88;1.80;;;5.50;55.80;;;;;;5066643;28;20672;-79
2022/02/01 02:16:13;;;;;;;3.78;1.45;;;5.60;55.80;;;;;;5061863;28;20237;-80
2022/02/01 02:18:40;;;;;;;7.55;1.25;;;5.50;55.80;;;;;;5060286;28;20203;-79
2022/02/01 02:21:08;;;;;;;5.03;1.80;;;5.60;55.90;;;;;;5060451;28;20210;-79
2022/02/01 02:23:35;;;;;;;7.55;1.90;;;5.50;55.80;;;;;;5062876;28;20227;-81
2022/02/01 02:26:06;;;;;;;6.53;2.00;;;5.60;55.80;;;;;;5063821;28;20202;-79
2022/02/01 02:28:33;;;;;;;7.63;1.70;;;5.50;55.80;;;;;;5063941;28;20281;-79
2022/02/01 02:31:02;;;;;;;3.15;1.60;;;5.50;55.80;;;;;;5066263;28;20183;-78
2022/02/01 02:33:31;;;;;;;4.78;1.38;;;5.50;55.80;;;;;;5075904;28;20281;-78
2022/02/01 02:36:04;;;;;;;3.00;1.20;;;5.50;55.80;;;;;;5076334;28;20206;-79
2022/02/01 02:38:38;;;;;;;6.68;1.63;;;5.50;56.40;;;;;;5076690;28;20195;-76
2022/02/01 02:41:28;;;;;;;7.55;2.00;;;5.40;56.50;;;;;;5074033;28;20197;-79
2022/02/01 02:46:43;;;;;;;6.25;2.03;;;5.40;56.70;;;;;;5065213;28;20248;-80
2022/02/01 02:49:15;;;;;;;7.65;1.90;;;5.30;57.00;;;;;;5064874;28;20202;-80
2022/02/01 02:51:42;;;;;;;3.78;1.45;;;5.30;57.30;;;;;;5063739;28;20550;-81
2022/02/01 02:54:12;;;;;;;9.45;2.38;;;5.30;56.90;;;;;;5064265;28;20594;-80
2022/02/01 02:56:43;;;;;;;4.10;1.90;;;5.40;56.70;;;;;;5068718;28;20238;-80
2022/02/01 02:59:10;;;;;;;9.45;2.10;;;5.30;56.70;;;;;;5073997;28;20210;-80
2022/02/01 03:01:38;;;;;;;8.25;2.05;;;5.30;56.80;;;;;;5075077;28;20239;-79
2022/02/01 03:04:05;;;;;;;9.52;1.70;;;5.30;56.50;;;;;;5074895;28;20226;-79
2022/02/01 03:06:32;;;;;;;7.60;1.85;;;5.30;55.90;;;;;;5072169;28;20289;-79
2022/02/01 03:08:59;;;;;;;6.60;1.58;;;5.30;55.60;;;;;;5064926;28;20255;-80
2022/02/01 03:11:27;;;;;;;10.65;2.50;;;5.20;55.50;;;;;;5063669;28;20265;-80
2022/02/01 03:13:57;;;;;;;7.78;1.83;;;5.20;55.60;;;;;;5067150;28;20269;-80
2022/02/01 03:16:36;;;;;;;6.30;1.40;;;5.30;55.60;;;;;;5067543;28;20209;-80
2022/02/01 03:21:48;;;;;;;7.80;1.90;;;5.20;55.50;;;;;;5073628;28;20332;-79
2022/02/01 03:24:15;;;;;;;7.22;1.90;;;5.20;55.50;;;;;;5075947;28;20190;-79
2022/02/01 03:26:43;;;;;;;8.52;2.10;;;5.20;55.50;;;;;;5075188;28;20230;-78
2022/02/01 03:29:10;;;;;;;6.72;1.88;;;5.20;55.60;;;;;;5067484;28;20206;-80
2022/02/01 03:31:40;;;;;;;4.90;2.17;;;5.20;55.50;;;;;;5066080;28;20271;-80
2022/02/01 03:34:07;;;;;;;9.35;2.42;;;5.10;55.40;;;;;;5068512;28;20230;-79
2022/02/01 03:36:34;;;;;;;10.20;2.25;;;5.10;55.20;;;;;;5071721;28;20328;-79
2022/02/01 03:39:01;;;;;;;7.03;2.47;;;5.10;55.40;;;;;;5072827;28;20237;-79
2022/02/01 03:41:28;;;;;;;3.85;1.90;;;5.10;55.40;;;;;;5070184;28;20253;-80
2022/02/01 03:43:57;;;;;;;12.50;2.95;;;5.00;55.30;;;;;;5062897;28;20333;-80
2022/02/01 03:46:23;;;;;;;8.80;2.55;;;5.00;54.80;;;;;;5068486;28;20273;-80
2022/02/01 03:48:50;;;;;;;9.05;1.80;;;4.90;55.20;;;;;;5059232;28;20289;-81
2022/02/01 03:51:17;;;;;;;4.55;1.63;;;4.90;55.20;;;;;;5057159;28;20202;-79
2022/02/01 03:53:44;;;;;;;13.70;3.38;;;4.80;55.20;;;;;;5057705;28;20230;-80
2022/02/01 03:56:11;;;;;;;18.23;2.85;;;4.80;55.20;;;;;;5063862;28;20210;-79
2022/02/01 03:58:38;;;;;;;10.85;2.45;;;4.80;55.00;;;;;;5074017;28;20232;-84
2022/02/01 04:01:06;;;;;;;9.30;1.85;;;4.80;54.40;;;;;;5073257;28;20245;-86
2022/02/01 04:03:34;;;;;;;7.47;1.75;;;4.70;54.70;;;;;;5066900;28;20230;-79
2022/02/01 04:06:00;;;;;;;7.00;1.70;;;4.70;54.50;;;;;;5059172;28;20218;-80
2022/02/01 04:08:27;;;;;;;6.40;1.75;;;4.70;54.10;;;;;;5058964;28;20268;-79
2022/02/01 04:10:54;;;;;;;8.27;2.10;;;4.70;53.30;;;;;;5060033;28;20207;-80
2022/02/01 04:13:21;;;;;;;8.52;1.92;;;4.70;53.60;;;;;;5061298;28;20284;-79
2022/02/01 04:15:48;;;;;;;5.25;1.80;;;4.70;53.30;;;;;;5065353;28;20237;-82
2022/02/01 04:18:17;;;;;;;12.48;2.88;;;4.70;52.80;;;;;;5060079;28;20202;-79
2022/02/01 04:20:44;;;;;;;8.05;2.03;;;4.60;52.50;;;;;;5056377;28;20210;-79
2022/02/01 04:23:11;;;;;;;8.38;1.90;;;4.60;52.00;;;;;;5056625;28;20218;-82
2022/02/01 04:25:41;;;;;;;7.20;2.33;;;4.60;51.70;;;;;;5055460;28;20197;-80
2022/02/01 04:28:08;;;;;;;4.85;1.45;;;4.60;51.70;;;;;;5056081;28;20249;-79
2022/02/01 04:30:35;;;;;;;7.35;1.52;;;4.60;51.20;;;;;;5055037;28;20210;-80
2022/02/01 04:33:07;;;;;;;8.50;2.40;;;4.50;51.20;;;;;;5058755;28;20313;-83
2022/02/01 04:35:36;;;;;;;7.32;1.85;;;4.50;51.10;;;;;;5060160;28;20258;-79
2022/02/01 04:38:03;;;;;;;11.95;2.33;;;4.50;51.00;;;;;;5060383;28;20256;-79
2022/02/01 04:40:33;;;;;;;5.45;1.50;;;4.50;50.90;;;;;;5060132;28;20199;-81
2022/02/01 04:43:02;;;;;;;9.65;1.90;;;4.50;51.30;;;;;;5064890;28;20266;-81
2022/02/01 04:45:30;;;;;;;6.88;1.80;;;4.50;51.10;;;;;;5061791;28;20309;-79
2022/02/01 04:47:57;;;;;;;4.85;2.10;;;4.50;51.20;;;;;;5060255;28;20653;-80
2022/02/01 04:50:26;;;;;;;3.47;1.60;;;4.50;51.40;;;;;;5059039;28;20206;-82
2022/02/01 04:52:56;;;;;;;6.25;2.10;;;4.50;51.50;;;;;;5059661;28;20223;-79
2022/02/01 04:55:29;;;;;;;5.95;1.88;;;4.50;51.70;;;;;;5038435;28;20234;-79
2022/02/01 04:57:56;;;;;;;7.53;2.05;;;4.50;51.70;;;;;;5051291;28;20194;-79
2022/02/01 05:00:26;;;;;;;6.32;1.92;;;4.50;51.80;;;;;;5060607;28;20278;-80
2022/02/01 05:02:53;;;;;;;10.18;2.38;;;4.40;51.80;;;;;;5058331;28;20218;-80
2022/02/01 05:05:28;;;;;;;8.55;1.75;;;4.50;52.10;;;;;;5058651;28;20721;-80
2022/02/01 05:07:58;;;;;;;5.20;1.60;;;4.40;52.10;;;;;;5057381;28;20303;-80
2022/02/01 05:10:25;;;;;;;10.45;2.00;;;4.50;52.10;;;;;;5058446;28;20241;-79
2022/02/01 05:12:52;;;;;;;6.53;2.30;;;4.50;52.20;;;;;;5062213;28;20226;-79
2022/02/01 05:15:19;;;;;;;7.38;2.38;;;4.50;52.20;;;;;;5059716;28;20306;-82
2022/02/01 05:17:53;;;;;;;13.00;3.40;;;4.50;52.60;;;;;;5058962;28;20214;-79
2022/02/01 05:20:27;;;;;;;9.88;2.30;;;4.50;52.70;;;;;;5057973;28;20203;-79
2022/02/01 05:22:56;;;;;;;10.10;2.55;;;4.50;52.60;;;;;;5071295;28;20245;-80
2022/02/01 05:25:29;;;;;;;10.60;2.03;;;4.40;53.00;;;;;;5070294;28;20209;-80
2022/02/01 05:27:59;;;;;;;7.05;2.30;;;4.40;53.20;;;;;;5065038;28;20202;-80
2022/02/01 05:30:27;;;;;;;12.07;2.58;;;4.30;53.00;;;;;;5065954;28;20685;-81
2022/02/01 05:32:54;;;;;;;12.48;3.55;;;4.40;53.40;;;;;;5065467;28;20314;-80
2022/02/01 05:35:21;;;;;;;10.65;2.58;;;4.40;53.50;;;;;;5067998;28;20305;-79
2022/02/01 05:37:49;;;;;;;10.73;2.30;;;4.40;53.30;;;;;;5070062;28;20215;-80
2022/02/01 05:40:19;;;;;;;6.75;2.55;;;4.30;53.40;;;;;;5071164;28;20523;-80
2022/02/01 05:42:57;;;;;;;9.77;2.40;;;4.30;53.40;;;;;;5064732;28;20375;-81
2022/02/01 05:45:24;;;;;;;8.50;2.20;;;4.40;53.40;;;;;;5066652;28;20202;-81
2022/02/01 05:47:52;;;;;;;9.85;2.58;;;4.30;52.50;;;;;;5062564;28;20241;-80
2022/02/01 05:50:19;;;;;;;7.55;2.10;;;4.30;52.40;;;;;;5061723;28;20199;-81
2022/02/01 05:52:47;;;;;;;9.45;3.30;;;4.30;52.30;;;;;;5061524;28;20226;-81
2022/02/01 05:55:15;;;;;;;14.30;2.42;;;4.30;52.40;;;;;;5061153;28;20806;-82
2022/02/01 05:57:44;;;;;;;6.25;2.05;;;4.30;52.00;;;;;;5061287;28;20277;-81
2022/02/01 06:00:12;;;;;;;12.00;1.90;;;4.30;52.20;;;;;;5061803;28;20210;-80
2022/02/01 06:02:39;;;;;;;7.32;2.28;;;4.30;52.30;;;;;;5062573;28;20234;-81
2022/02/01 06:05:07;;;;;;;6.47;2.33;;;4.30;51.60;;;;;;5063231;28;20202;-80
2022/02/01 06:07:34;;;;;;;11.07;2.22;;;4.30;51.90;;;;;;5061830;28;20286;-81
2022/02/01 06:10:01;;;;;;;6.18;1.90;;;4.30;52.20;;;;;;5049409;28;20223;-81
2022/02/01 06:12:28;;;;;;;6.05;2.17;;;4.20;52.20;;;;;;5056777;28;20223;-80
2022/02/01 06:14:57;;;;;;;9.20;2.20;;;4.20;52.30;;;;;;5076171;28;20221;-79
2022/02/01 06:17:25;;;;;;;5.97;1.85;;;4.20;52.20;;;;;;5077055;28;20201;-80
2022/02/01 06:19:52;;;;;;;10.38;2.08;;;4.20;52.00;;;;;;5076074;28;20281;-80
2022/02/01 06:22:19;;;;;;;4.53;1.15;;;4.20;52.00;;;;;;5073096;28;20254;-82
2022/02/01 06:24:46;;;;;;;5.18;1.67;;;4.20;51.70;;;;;;5062290;28;20320;-81
2022/02/01 06:27:13;;;;;;;6.65;1.63;;;4.20;51.20;;;;;;5073415;28;20264;-83
2022/02/01 06:29:40;;;;;;;8.15;1.80;;;4.20;51.50;;;;;;5075258;28;20292;-80
2022/02/01 06:32:08;;;;;;;11.18;2.45;;;4.20;51.70;;;;;;5072595;28;20236;-77
2022/02/01 06:34:35;;;;;;;9.77;2.28;;;4.20;51.80;;;;;;5071779;28;20210;-77
2022/02/01 06:37:02;;;;;;;4.38;1.58;;;4.20;52.10;;;;;;5067782;28;20206;-78
2022/02/01 06:39:29;;;;;;;5.72;1.98;;;4.20;52.30;;;;;;5065205;28;20266;-80
2022/02/01 06:41:56;;;;;;;8.65;2.15;;;4.20;52.70;;;;;;5060603;28;20239;-81
2022/02/01 06:44:24;;;;;;;6.47;1.65;;;4.20;53.10;;;;;;5061315;28;20277;-79
2022/02/01 06:46:51;;;;;;;11.30;2.50;;;4.10;53.00;;;;;;5058640;28;20825;-79
2022/02/01 06:49:19;;;;;;;12.43;3.17;;;4.20;53.30;;;;;;5059274;28;20210;-78
2022/02/01 06:51:46;;;;;;;4.75;1.75;;;4.20;53.40;;;;;;5059102;28;20218;-78
2022/02/01 06:54:13;;;;;;;5.05;1.60;;;4.10;54.00;;;;;;5056726;28;20215;-79
2022/02/01 06:56:41;;;;;;;3.85;1.80;;;4.10;54.50;;;;;;5059082;28;20297;-80
2022/02/01 06:59:08;;;;;;;6.55;1.75;;;4.10;54.50;;;;;;5060852;28;20210;-79
2022/02/01 07:01:35;;;;;;;5.45;1.83;;;4.10;54.50;;;;;;5060962;28;20238;-79
2022/02/01 07:04:03;;;;;;;10.27;2.30;;;4.10;54.50;;;;;;5058901;28;20237;-78
2022/02/01 07:06:33;;;;;;;3.42;1.55;;;4.00;54.50;;;;;;5059848;28;20198;-79
2022/02/01 07:09:01;;;;;;;9.40;2.20;;;4.00;55.30;;;;;;5065120;28;20328;-80
2022/02/01 07:11:29;;;;;;;3.88;1.52;;;4.00;55.60;;;;;;5060997;28;20289;-79
2022/02/01 07:13:55;;;;;;;7.22;2.15;;;4.00;56.10;;;;;;5065631;28;20302;-78
2022/02/01 07:16:22;;;;;;;4.47;2.15;;;4.00;56.50;;;;;;5066306;28;20222;-80
2022/02/01 07:18:50;;;;;;;8.05;2.47;;;4.00;56.80;;;;;;5067859;28;20282;-80
2022/02/01 07:21:16;;;;;;;8.52;2.40;;;4.00;57.00;;;;;;5067464;28;20211;-80
2022/02/01 07:23:45;;;;;;;5.63;1.92;;;4.00;57.10;;;;;;5072889;28;20230;-78
2022/02/01 07:26:12;;;;;;;6.53;2.72;;;4.10;58.10;;;;;;5070347;28;20230;-78
2022/02/01 07:28:39;;;;;;;5.93;2.50;;;4.10;57.60;;;;;;5067236;28;20207;-82
2022/02/01 07:31:08;;;;;;;7.68;2.65;;;4.10;57.90;;;;;;5065845;28;20211;-79
2022/02/01 07:33:37;;;;;;;4.50;2.17;;;4.10;57.90;;;;;;5060691;28;20266;-78
2022/02/01 07:36:05;;;;;;;6.70;2.47;;;4.10;58.10;;;;;;5059994;28;20232;-79
2022/02/01 07:38:32;;;;;;;4.88;2.17;;;4.20;58.30;;;;;;5057380;28;20237;-80
2022/02/01 07:41:01;;;;;;;7.45;2.17;;;4.30;58.20;;;;;;5058496;28;20776;-79
2022/02/01 07:43:31;;;;;;;12.18;3.40;;;4.30;57.80;;;;;;5057921;28;20260;-78
2022/02/01 07:46:00;;;;;;;12.05;3.08;;;4.30;58.10;;;;;;5056268;28;20213;-79
2022/02/01 07:48:27;;;;;;;12.90;2.92;;;4.30;58.40;;;;;;5056176;28;20202;-80
2022/02/01 07:50:54;;;;;;;16.40;3.75;;;4.30;58.70;;;;;;5057072;28;20241;-80
2022/02/01 07:53:21;;;;;;;10.15;3.40;;;4.40;58.90;;;;;;5060679;28;20261;-78
2022/02/01 07:55:48;;;;;;;6.93;3.25;;;4.40;58.70;;;;;;5059474;28;20249;-79
2022/02/01 07:58:16;;;;;;;9.90;3.00;;;4.40;59.40;;;;;;5059308;28;20210;-79
2022/02/01 08:00:44;;;;;;;6.60;2.53;;;4.40;59.40;;;;;;5068475;28;20270;-83
2022/02/01 08:03:12;;;;;;;9.65;2.70;;;4.30;59.30;;;;;;5064812;28;20260;-83
2022/02/01 08:05:40;;;;;;;10.27;2.95;;;4.30;59.40;;;;;;5069363;28;20256;-82
2022/02/01 08:08:11;;;;;;;9.63;2.83;;;4.30;59.30;;;;;;5073496;28;20225;-82
2022/02/01 08:10:43;;;;;;;10.73;3.03;;;4.40;59.40;;;;;;5069967;28;20210;-81
2022/02/01 08:16:31;;;;;;;11.38;2.65;;;4.50;59.50;;;;;;5067881;28;20244;-80
2022/02/01 08:19:13;;;;;;;7.53;2.55;;;4.50;59.50;;;;;;5064651;28;20215;-80
2022/02/01 08:21:45;;;;;;;4.55;2.47;;;4.50;59.20;;;;;;5068280;28;20222;-79
2022/02/01 08:24:13;;;;;;;6.80;2.60;;;4.40;59.40;;;;;;5079011;28;20218;-79
2022/02/01 08:26:40;;;;;;;14.75;3.50;;;4.50;59.50;;;;;;5079174;28;20205;-79
2022/02/01 08:29:08;;;;;;;6.45;2.13;;;4.50;59.10;;;;;;5077540;28;20202;-79
2022/02/01 08:31:36;;;;;;;3.83;2.10;;;4.50;59.10;;;;;;5075593;28;20217;-79
2022/02/01 08:34:04;;;;;;;8.40;2.60;;;4.50;59.10;;;;;;5060928;28;20321;-80
2022/02/01 08:36:30;;;;;;;9.35;2.92;;;4.50;59.10;;;;;;5059724;28;20310;-77
2022/02/01 08:38:58;;;;;;;12.60;3.05;;;4.50;59.50;;;;;;5059502;28;20285;-78
2022/02/01 08:41:26;;;;;;;13.27;2.70;;;4.60;59.60;;;;;;5061933;28;20233;-79
2022/02/01 08:43:55;;;;;;;11.13;2.75;;;4.70;58.60;;;;;;5063463;28;20238;-78
2022/02/01 08:46:22;;;;;;;10.27;2.90;;;4.60;58.60;;;;;;5064618;28;20255;-80
2022/02/01 08:48:51;;;;;;;8.52;2.60;;;4.70;58.40;;;;;;5065688;28;20215;-79
2022/02/01 08:51:20;;;;;;;12.95;2.85;;;4.70;58.40;;;;;;5062719;28;20194;-79
2022/02/01 08:53:55;;;;;;;7.40;2.47;;;4.80;58.30;;;;;;5071768;28;20364;-80
2022/02/01 08:59:07;;;;;;;8.57;3.25;;;4.80;57.90;;;;;;5070222;28;20233;-82
2022/02/01 09:01:34;;;;;;;8.02;2.42;;;4.80;58.00;;;;;;5068445;28;20233;-80
2022/02/01 09:04:02;;;;;;;6.55;2.35;;;4.80;57.80;;;;;;5069543;28;20234;-81
2022/02/01 09:06:30;;;;;;;7.07;3.10;;;4.90;57.30;;;;;;5056112;28;20209;-78
2022/02/01 09:08:56;;;;;;;5.60;2.05;;;4.80;57.00;;;;;;5057804;28;20217;-79
2022/02/01 09:11:26;;;;;;;11.60;2.65;;;4.90;56.80;;;;;;5065908;28;20214;-80
2022/02/01 09:13:53;;;;;;;7.57;2.28;;;4.90;57.00;;;;;;5062783;28;20234;-78
2022/02/01 09:16:21;;;;;;;8.00;2.55;;;5.00;56.60;;;;;;5060497;28;20229;-79
2022/02/01 09:18:48;;;;;;;8.43;2.78;;;5.00;56.00;;;;;;5058880;28;20256;-80
2022/02/01 09:21:17;;;;;;;5.85;2.10;;;4.90;55.40;;;;;;5061363;28;20811;-79
2022/02/01 09:23:44;;;;;;;10.30;3.10;;;5.00;55.30;;;;;;5066923;28;20223;-81
2022/02/01 09:26:11;;;;;;;11.73;2.58;;;5.00;55.30;;;;;;5070947;28;20194;-81
2022/02/01 09:28:38;;;;;;;12.20;2.60;;;4.90;55.20;;;;;;5064581;28;20222;-82
2022/02/01 09:31:05;;;;;;;8.52;1.85;;;4.90;55.20;;;;;;5067048;28;20202;-80
2022/02/01 09:33:32;;;;;;;8.60;3.28;;;4.90;54.30;;;;;;5069307;28;20234;-79
2022/02/01 09:35:59;;;;;;;3.63;1.90;;;5.00;53.50;;;;;;5069973;28;20248;-79
2022/02/01 09:38:31;;;;;;;7.25;2.17;;;5.10;53.70;;;;;;5072059;28;20217;-81
2022/02/01 09:40:58;;;;;;;4.55;2.22;;;5.10;54.00;;;;;;5070816;28;20232;-79
2022/02/01 09:43:25;;;;;;;10.82;2.38;;;5.10;52.70;;;;;;5076758;28;20234;-78
2022/02/01 09:45:53;;;;;;;3.35;1.90;;;5.10;53.30;;;;;;5070382;28;20202;-79
2022/02/01 09:48:20;;;;;;;7.50;2.22;;;5.20;52.70;;;;;;5067830;28;20211;-79
2022/02/01 09:50:47;;;;;;;7.20;1.95;;;5.20;51.90;;;;;;5068742;28;20289;-78
2022/02/01 09:53:14;;;;;;;4.40;1.83;;;5.20;51.90;;;;;;5066880;28;20230;-79
2022/02/01 09:55:43;;;;;;;8.95;2.30;;;5.10;52.00;;;;;;5065352;28;20226;-80
2022/02/01 09:58:12;;;;;;;5.75;2.00;;;5.10;52.30;;;;;;5064210;28;20210;-79
2022/02/01 10:00:46;;;;;;;9.02;1.90;;;5.20;51.80;;;;;;5059263;28;20211;-77
2022/02/01 10:03:17;;;;;;;5.35;1.92;;;5.30;52.00;;;;;;5059919;28;20257;-77
2022/02/01 10:05:45;;;;;;;6.43;1.80;;;5.40;51.00;;;;;;5063743;28;20183;-78
2022/02/01 10:08:14;;;;;;;9.90;2.65;;;5.30;50.90;;;;;;5062570;28;20237;-77
2022/02/01 10:10:40;;;;;;;12.45;2.47;;;5.30;50.90;;;;;;5060402;28;20210;-80
2022/02/01 10:13:14;;;;;;;6.55;2.25;;;5.20;50.80;;;;;;5063345;28;20317;-80
2022/02/01 10:15:41;;;;;;;6.40;1.80;;;5.30;50.90;;;;;;5079208;28;20218;-78
2022/02/01 10:18:09;;;;;;;5.70;1.80;;;5.30;50.90;;;;;;5089942;28;20210;-79
2022/02/01 10:20:39;;;;;;;10.52;2.38;;;5.40;50.80;;;;;;5081027;28;20202;-79
2022/02/01 10:23:20;;;;;;;5.63;2.15;;;5.50;51.10;;;;;;5088143;28;20236;-79
2022/02/01 10:26:05;;;;;;;7.10;2.15;;;5.60;51.10;;;;;;5092929;28;20202;-80
2022/02/01 10:28:59;;;;;;;6.10;1.80;;;5.50;52.70;;;;;;5094159;28;20205;-80
2022/02/01 10:31:32;;;;;;;8.20;3.00;;;5.60;54.10;;;;;;5076326;28;20213;-78
2022/02/01 10:34:14;;;;;;;8.25;2.15;;;5.50;54.50;;;;;;5069037;28;20230;-78
2022/02/01 10:36:42;;;;;;;4.47;2.67;;;5.40;55.70;;;;;;5058538;28;20222;-80
2022/02/01 10:39:22;;;;;;;8.45;2.65;;;5.30;55.10;;;;;;5063098;28;20234;-78
2022/02/01 10:41:54;;;;;;;6.47;2.45;;;5.40;54.50;;;;;;5049558;28;20241;-81
2022/02/01 10:44:23;;;;;;;5.60;2.67;;;5.30;54.00;;;;;;5062619;28;20230;-79
2022/02/01 10:46:51;;;;;;;8.18;3.38;;;5.30;53.90;;;;;;5067923;28;20202;-80
2022/02/01 10:49:27;;;;;;;11.25;3.42;;;5.40;53.90;;;;;;5067257;28;20565;-79
2022/02/01 10:52:00;;;;;;;15.45;3.00;;;5.40;52.40;;;;;;5045728;28;20209;-78
2022/02/01 10:54:27;;;;;;;11.88;3.80;;;5.40;52.00;;;;;;5047461;28;20275;-79
2022/02/01 10:56:55;;;;;;;11.98;3.20;;;5.50;52.90;;;;;;5053068;28;20285;-79
2022/02/01 10:59:24;;;;;;;7.45;3.00;;;5.40;53.20;;;;;;5049374;28;20237;-78
2022/02/01 11:01:51;;;;;;;7.43;2.78;;;5.40;54.70;;;;;;5062055;28;20632;-79
2022/02/01 11:04:21;;;;;;;7.63;2.17;;;5.40;54.60;;;;;;5056172;28;20233;-80
2022/02/01 11:06:50;;;;;;;12.48;3.00;;;5.30;55.00;;;;;;5058433;28;20198;-79
2022/02/01 11:09:19;;;;;;;6.10;2.10;;;5.20;55.50;;;;;;5060078;28;20206;-79
2022/02/01 11:11:53;;;;;;;6.45;2.50;;;5.10;56.40;;;;;;5059645;28;20220;-79
2022/02/01 11:14:23;;;;;;;6.38;2.40;;;5.00;57.10;;;;;;5060920;28;20210;-79
2022/02/01 11:17:01;;;;;;;6.70;2.90;;;4.90;58.00;;;;;;5054181;28;20234;-79
2022/02/01 11:19:28;;;;;;;8.60;3.10;;;4.80;58.60;;;;;;5045831;28;20233;-79
2022/02/01 11:21:56;;;;;;;8.75;2.67;;;4.80;59.70;;;;;;5065358;28;20366;-79
2022/02/01 11:24:31;;;;;;;4.03;2.17;;;4.80;60.30;;;;;;5061554;28;20202;-78
2022/02/01 11:27:14;;;;;;;10.20;2.50;;;4.80;60.40;;;;;;5059219;28;20233;-81
2022/02/01 11:32:34;;;;;;;10.82;2.42;;;4.80;60.20;;;;;;5052139;28;20234;-78
2022/02/01 11:35:04;;;;;;;5.50;1.80;;;5.00;59.90;;;;;;5071344;28;20229;-78
2022/02/01 11:37:30;;;;;;;5.30;1.90;;;5.00;59.20;;;;;;5074115;28;20252;-79
2022/02/01 11:39:58;;;;;;;3.00;2.03;;;5.10;58.50;;;;;;5073245;28;20208;-82
2022/02/01 11:42:32;;;;;;;2.70;1.60;;;5.10;57.80;;;;;;5068291;28;20261;-80
2022/02/01 11:45:06;;;;;;;7.40;2.13;;;5.20;57.50;;;;;;5065854;28;20226;-79
2022/02/01 11:47:34;;;;;;;9.38;2.03;;;5.10;56.90;;;;;;5069703;28;20202;-81
2022/02/01 11:50:11;;;;;;;3.15;1.85;;;5.10;56.60;;;;;;5070923;28;20266;-78
2022/02/01 11:52:43;;;;;;;5.95;2.17;;;5.10;57.30;;;;;;5067238;28;20240;-79
2022/02/01 11:55:11;;;;;;;4.70;2.08;;;5.10;57.00;;;;;;5068067;28;20289;-79
2022/02/01 11:57:42;;;;;;;6.32;2.03;;;5.10;56.80;;;;;;5076999;28;20234;-79
2022/02/01 12:00:18;;;;;;;3.00;1.75;;;5.00;57.50;;;;;;5067530;28;20209;-79
2022/02/01 12:02:50;;;;;;;3.38;2.30;;;5.00;57.40;;;;;;5063331;28;20218;-79
2022/02/01 12:05:26;;;;;;;4.50;1.88;;;5.00;57.50;;;;;;5060866;28;20199;-77
2022/02/01 12:08:04;;;;;;;6.05;1.67;;;5.10;57.80;;;;;;5062521;28;20234;-77
2022/02/01 12:10:32;;;;;;;3.15;1.50;;;5.10;58.20;;;;;;5071654;28;20187;-77
2022/02/01 12:13:00;;;;;;;6.90;2.10;;;5.10;58.80;;;;;;5061553;28;20313;-78
2022/02/01 12:15:30;;;;;;;4.95;1.60;;;5.10;58.90;;;;;;5063042;28;20214;-80
2022/02/01 12:18:05;;;;;;;3.28;1.95;;;5.00;59.10;;;;;;5066167;28;20301;-79
2022/02/01 12:20:35;;;;;;;5.40;1.80;;;5.00;59.90;;;;;;5064017;28;20259;-79
2022/02/01 12:23:26;;;;;;;6.85;1.92;;;4.90;60.30;;;;;;5061533;28;20226;-79
2022/02/01 12:25:54;;;;;;;4.82;1.67;;;4.80;62.00;;;;;;5045289;28;20640;-78
2022/02/01 12:28:22;;;;;;;6.90;1.83;;;4.70;61.50;;;;;;5061566;28;20551;-79
2022/02/01 12:30:52;;;;;;;5.28;2.08;;;4.60;62.40;;;;;;5062259;28;20210;-78
2022/02/01 12:33:21;;;;;;;6.90;2.28;;;4.60;62.10;;;;;;5061289;28;20257;-79
2022/02/01 12:35:52;;;;;;;5.50;2.08;;;4.60;61.80;;;;;;5067262;28;20218;-79
2022/02/01 12:38:21;;;;;;;9.82;2.85;;;4.60;62.40;;;;;;5066750;28;20195;-80
2022/02/01 12:40:55;;;;;;;9.85;2.00;;;4.60;64.00;;;;;;5062064;28;20659;-78
2022/02/01 12:43:27;;;;;;;7.78;2.50;;;4.60;65.10;;;;;;5061181;28;20296;-79
2022/02/01 12:46:06;;;;;;;7.20;2.40;;;4.50;66.80;;;;;;5067235;28;20206;-78
2022/02/01 12:48:33;;;;;;;3.88;2.30;;;4.50;69.80;;;;;;5066539;28;20206;-78
2022/02/01 12:51:02;;;;;;;6.18;2.20;;;4.60;71.40;;;;;;5069771;28;20234;-81
2022/02/01 12:53:40;;;;;;;3.78;2.50;;;4.50;72.60;;;;;;5069866;28;20229;-78
2022/02/01 12:56:15;;;;;;;12.23;2.30;;;4.50;74.30;;;;;;5064913;28;20248;-79
2022/02/01 12:58:42;;;;;;;10.73;2.75;;;4.50;75.50;;;;;;5062128;28;20264;-78
2022/02/01 13:01:10;;;;;;;5.40;2.40;;;4.40;76.70;;;;;;5064933;28;20274;-81
2022/02/01 13:03:42;;;;;;;7.25;2.33;;;4.30;77.40;;;;;;5069191;28;20246;-78
2022/02/01 13:06:11;;;;;;;6.25;2.20;;;4.20;80.20;;;;;;5074373;28;20279;-78
2022/02/01 13:12:56;;;;;;;7.65;2.97;;;4.00;83.00;;;;;;5074627;28;20198;-79
2022/02/01 13:17:22;;;;;;;5.70;2.63;;;3.90;89.00;;;;;;5063046;28;20228;-79
2022/02/01 13:20:10;;;;;;;10.07;3.10;;;3.80;88.80;;;;;;5067791;28;20213;-80
2022/02/01 13:22:48;;;;;;;5.30;2.45;;;3.80;88.90;;;;;;5070357;28;20262;-78
2022/02/01 13:25:16;;;;;;;6.78;2.42;;;3.70;90.30;;;;;;5086398;28;20202;-79
2022/02/01 13:27:42;;;;;;;5.85;2.70;;;3.70;91.00;;;;;;5084460;28;20608;-79
2022/02/01 13:30:12;;;;;;;9.15;3.58;;;3.60;91.10;;;;;;5072017;28;20210;-79
2022/02/01 13:32:42;;;;;;;5.88;2.85;;;3.60;92.00;;;;;;5068870;28;20254;-79
2022/02/01 13:35:12;;;;;;;4.20;3.30;;;3.50;92.80;;;;;;5057928;28;20682;-78
2022/02/01 13:37:46;;;;;;;12.95;3.25;;;3.50;94.00;;;;;;5058314;28;20215;-78
2022/02/01 13:40:24;;;;;;;8.50;3.03;;;3.40;94.40;;;;;;5059444;28;20201;-78
2022/02/01 13:42:51;;;;;;;11.90;3.70;;;3.40;94.70;;;;;;5051667;28;20233;-79
2022/02/01 13:45:17;;;;;;;8.60;3.13;;;3.40;95.40;;;;;;5078496;28;20195;-78
2022/02/01 13:47:50;;;;;;;14.10;3.55;;;3.30;96.10;;;;;;5066382;28;20217;-78
2022/02/01 13:50:18;;;;;;;6.10;2.92;;;3.20;96.20;;;;;;5066383;28;20191;-78
2022/02/01 13:52:56;;;;;;;7.47;3.40;;;3.20;96.40;;;;;;5059009;28;20225;-78
2022/02/01 13:55:24;;;;;;;8.60;3.10;;;3.30;97.30;;;;;;5060769;28;20217;-79
2022/02/01 13:57:54;;;;;;;10.30;3.78;;;3.20;97.30;;;;;;5058346;28;20227;-77
2022/02/01 14:00:22;;;;;;;8.68;4.32;;;3.20;97.50;;;;;;5065861;28;20206;-79
2022/02/01 14:02:57;;;;;;;8.45;3.35;;;3.10;97.90;;;;;;5067750;28;20293;-76
2022/02/01 14:05:28;;;;;;;10.30;3.92;;;3.20;98.40;;;;;;5059592;28;20660;-77
2022/02/01 14:10:47;;;;;;;7.45;3.10;;;3.10;98.00;;;;;;5044557;28;20206;-78
2022/02/01 14:27:33;;;;;;;9.77;3.80;;;3.10;99.90;;;;;;5058200;28;20198;-78
2022/02/01 14:33:25;;;;;;;6.82;3.50;;;3.00;99.90;;;;;;5058236;28;20280;-77
2022/02/01 14:35:53;;;;;;;12.70;3.63;;;3.00;99.90;;;;;;5056593;28;20206;-77
2022/02/01 14:44:26;;;;;;;9.73;3.33;;;3.10;99.90;;;;;;5002785;28;20228;-77
2022/02/01 14:46:52;;;;;;;6.50;3.30;;;3.10;99.90;;;;;;5001680;28;20215;-80
2022/02/01 14:49:23;;;;;;;11.27;3.83;;;3.10;99.90;;;;;;5036577;28;20244;-79